createdAt,value
2019-02-17T00:00:34.835Z,29.77
2019-02-17T00:03:02.415Z,26.87
2019-02-17T00:05:30.142Z,33.20
2019-02-17T00:07:57.258Z,29.87
2019-02-17T00:10:24.406Z,29.77
2019-02-17T00:12:51.904Z,30.30
2019-02-17T00:15:19.502Z,28.25
2019-02-17T00:17:47.147Z,28.20
2019-02-17T00:20:14.343Z,30.70
2019-02-17T00:22:41.446Z,28.83
2019-02-17T00:25:08.749Z,33.18
2019-02-17T00:27:36.032Z,32.67
2019-02-17T00:30:03.926Z,31.00
2019-02-17T00:32:31.487Z,32.17
2019-02-17T00:34:58.886Z,31.40
2019-02-17T00:37:25.913Z,33.18
2019-02-17T00:39:53.214Z,28.73
2019-02-17T00:42:20.267Z,30.00
2019-02-17T00:44:47.315Z,26.75
2019-02-17T00:47:14.799Z,31.12
2019-02-17T00:49:42.154Z,29.48
2019-02-17T00:52:09.589Z,31.25
2019-02-17T00:54:36.702Z,28.70
2019-02-17T00:57:04.244Z,30.55
2019-02-17T00:59:31.398Z,32.17
2019-02-17T01:01:58.625Z,30.05
2019-02-17T01:04:26.053Z,32.25
2019-02-17T01:06:53.530Z,29.70
2019-02-17T01:09:20.728Z,33.90
2019-02-17T01:11:47.912Z,30.68
2019-02-17T01:14:15.472Z,32.00
2019-02-17T01:16:42.855Z,31.95
2019-02-17T01:19:10.038Z,31.45
2019-02-17T01:21:37.294Z,29.20
2019-02-17T01:24:04.393Z,32.95
2019-02-17T01:26:31.519Z,35.73
2019-02-17T01:28:58.666Z,27.95
2019-02-17T01:31:25.881Z,28.47
2019-02-17T01:33:52.993Z,31.27
2019-02-17T01:36:20.040Z,30.55
2019-02-17T01:38:47.394Z,32.48
2019-02-17T01:41:14.486Z,31.45
2019-02-17T01:43:41.578Z,30.77
2019-02-17T01:46:08.782Z,31.82
2019-02-17T01:48:35.862Z,31.33
2019-02-17T01:51:02.942Z,31.07
2019-02-17T01:53:30.098Z,28.83
2019-02-17T01:55:57.220Z,33.50
2019-02-17T01:58:24.397Z,32.38
2019-02-17T02:00:51.615Z,34.13
2019-02-17T02:03:18.658Z,33.75
2019-02-17T02:05:45.827Z,37.93
2019-02-17T02:08:13.509Z,32.17
2019-02-17T02:10:40.513Z,31.57
2019-02-17T02:13:07.872Z,36.08
2019-02-17T02:15:35.511Z,32.67
2019-02-17T02:18:02.799Z,34.90
2019-02-17T02:20:30.052Z,30.50
2019-02-17T02:22:57.741Z,31.95
2019-02-17T02:25:24.965Z,36.03
2019-02-17T02:27:52.032Z,33.38
2019-02-17T02:30:19.091Z,31.23
2019-02-17T02:32:46.313Z,32.25
2019-02-17T02:35:13.362Z,32.23
2019-02-17T02:37:41.948Z,38.65
2019-02-17T02:40:09.389Z,32.95
2019-02-17T02:42:36.637Z,34.92
2019-02-17T02:45:04.335Z,35.33
2019-02-17T02:47:32.634Z,34.67
2019-02-17T02:49:59.754Z,31.60
2019-02-17T02:52:26.939Z,35.65
2019-02-17T02:54:54.420Z,33.42
2019-02-17T02:57:21.772Z,32.98
2019-02-17T02:59:52.397Z,37.88
2019-02-17T03:02:18.317Z,36.80
2019-02-17T03:04:45.514Z,34.83
2019-02-17T03:07:15.486Z,38.05
2019-02-17T03:09:42.758Z,37.53
2019-02-17T03:12:10.113Z,34.95
2019-02-17T03:14:37.569Z,35.00
2019-02-17T03:17:04.790Z,37.58
2019-02-17T03:19:32.394Z,36.98
2019-02-17T03:21:59.497Z,32.50
2019-02-17T03:24:26.974Z,36.50
2019-02-17T03:26:54.155Z,35.70
2019-02-17T03:29:22.338Z,33.10
2019-02-17T03:31:49.493Z,32.88
2019-02-17T03:34:16.610Z,36.63
2019-02-17T03:36:44.300Z,36.10
2019-02-17T03:39:11.730Z,36.58
2019-02-17T03:41:39.050Z,40.17
2019-02-17T03:44:06.650Z,38.60
2019-02-17T03:46:33.752Z,35.55
2019-02-17T03:49:00.877Z,38.42
2019-02-17T03:51:27.990Z,38.73
2019-02-17T03:53:55.082Z,39.70
2019-02-17T03:56:22.085Z,38.78
2019-02-17T03:58:49.123Z,37.28
2019-02-17T04:01:16.150Z,39.63
2019-02-17T04:03:43.228Z,36.48
2019-02-17T04:06:10.550Z,40.67
2019-02-17T04:08:37.660Z,35.85
2019-02-17T04:11:04.796Z,42.70
2019-02-17T04:13:31.856Z,37.25
2019-02-17T04:18:36.983Z,40.10
2019-02-17T04:21:04.439Z,39.05
2019-02-17T04:23:31.958Z,37.58
2019-02-17T04:25:59.462Z,38.65
2019-02-17T04:28:26.458Z,39.80
2019-02-17T04:30:53.643Z,39.50
2019-02-17T04:33:21.371Z,38.28
2019-02-17T04:35:48.706Z,38.05
2019-02-17T04:38:15.838Z,39.35
2019-02-17T04:40:42.923Z,43.15
2019-02-17T04:43:09.925Z,36.77
2019-02-17T04:45:37.047Z,44.27
2019-02-17T04:48:04.338Z,39.75
2019-02-17T04:50:31.513Z,40.05
2019-02-17T04:52:58.840Z,39.08
2019-02-17T04:55:26.439Z,39.15
2019-02-17T04:57:53.441Z,41.02
2019-02-17T05:00:23.505Z,40.00
2019-02-17T05:02:50.639Z,43.15
2019-02-17T05:05:17.709Z,40.00
2019-02-17T05:07:44.853Z,40.95
2019-02-17T05:10:12.973Z,40.00
2019-02-17T05:12:40.187Z,41.10
2019-02-17T05:15:07.599Z,44.88
2019-02-17T05:17:34.620Z,49.65
2019-02-17T05:20:01.890Z,44.25
2019-02-17T05:22:28.922Z,43.75
2019-02-17T05:24:56.173Z,41.28
2019-02-17T05:27:23.597Z,39.35
2019-02-17T05:29:50.578Z,42.48
2019-02-17T05:32:17.998Z,45.35
2019-02-17T05:34:45.219Z,40.48
2019-02-17T05:37:12.346Z,40.90
2019-02-17T05:39:39.352Z,43.08
2019-02-17T05:42:06.429Z,45.23
2019-02-17T05:44:34.122Z,47.20
2019-02-17T05:47:01.993Z,40.73
2019-02-17T05:49:29.035Z,36.40
2019-02-17T05:51:56.462Z,40.30
2019-02-17T05:54:23.714Z,35.63
2019-02-17T05:56:51.246Z,39.10
2019-02-17T05:59:18.558Z,39.80
2019-02-17T06:01:45.634Z,37.20
2019-02-17T06:04:13.418Z,41.13
2019-02-17T06:06:40.728Z,36.48
2019-02-17T06:09:07.953Z,38.15
2019-02-17T06:11:35.110Z,35.13
2019-02-17T06:14:02.266Z,36.40
2019-02-17T06:16:29.779Z,42.20
2019-02-17T06:18:57.368Z,41.88
2019-02-17T06:21:24.593Z,36.20
2019-02-17T06:23:52.077Z,38.78
2019-02-17T06:26:19.455Z,40.38
2019-02-17T06:28:46.891Z,39.95
2019-02-17T06:31:14.876Z,37.90
2019-02-17T06:33:42.102Z,37.98
2019-02-17T06:36:09.259Z,40.73
2019-02-17T06:38:36.361Z,38.30
2019-02-17T06:41:03.514Z,39.63
2019-02-17T06:43:30.602Z,39.25
2019-02-17T06:45:58.275Z,38.95
2019-02-17T06:48:25.394Z,41.65
2019-02-17T06:50:52.828Z,38.53
2019-02-17T06:53:20.236Z,40.73
2019-02-17T06:55:55.342Z,42.58
2019-02-17T06:58:22.855Z,39.13
2019-02-17T07:00:52.625Z,38.80
2019-02-17T07:03:19.814Z,38.10
2019-02-17T07:06:01.477Z,40.80
2019-02-17T07:08:28.517Z,41.98
2019-02-17T07:10:55.674Z,43.15
2019-02-17T07:13:23.170Z,42.00
2019-02-17T07:15:50.301Z,42.23
2019-02-17T07:18:17.370Z,41.23
2019-02-17T07:20:45.886Z,39.18
2019-02-17T07:23:15.115Z,41.30
2019-02-17T07:25:41.845Z,40.50
2019-02-17T07:28:08.843Z,40.50
2019-02-17T07:30:36.080Z,37.42
2019-02-17T07:33:03.286Z,38.75
2019-02-17T07:35:30.314Z,42.78
2019-02-17T07:37:57.791Z,42.00
2019-02-17T07:40:25.147Z,42.50
2019-02-17T07:42:52.507Z,41.15
2019-02-17T07:45:19.524Z,43.05
2019-02-17T07:47:46.609Z,38.25
2019-02-17T07:50:14.025Z,40.20
2019-02-17T07:52:41.179Z,44.13
2019-02-17T07:55:08.681Z,39.75
2019-02-17T07:57:35.781Z,41.23
2019-02-17T08:00:03.235Z,44.90
2019-02-17T08:02:30.354Z,39.27
2019-02-17T08:04:57.536Z,41.58
2019-02-17T08:07:24.789Z,43.52
2019-02-17T08:09:51.979Z,44.03
2019-02-17T08:12:19.269Z,43.10
2019-02-17T08:14:46.408Z,44.25
2019-02-17T08:17:13.466Z,42.48
2019-02-17T08:19:40.610Z,38.70
2019-02-17T08:22:08.049Z,39.48
2019-02-17T08:24:35.131Z,42.45
2019-02-17T08:27:04.547Z,43.63
2019-02-17T08:29:31.135Z,44.38
2019-02-17T08:31:59.507Z,44.85
2019-02-17T08:34:26.583Z,45.03
2019-02-17T08:36:54.418Z,43.30
2019-02-17T08:39:21.757Z,44.83
2019-02-17T08:41:49.374Z,42.17
2019-02-17T08:44:16.859Z,40.50
2019-02-17T08:46:45.109Z,43.85
2019-02-17T08:49:12.434Z,41.45
2019-02-17T08:51:39.528Z,44.93
2019-02-17T08:54:06.581Z,48.70
2019-02-17T08:56:33.856Z,44.15
2019-02-17T08:59:00.903Z,43.30
2019-02-17T09:01:28.308Z,44.73
2019-02-17T09:03:56.043Z,44.45
2019-02-17T09:06:23.035Z,44.77
2019-02-17T09:08:50.280Z,40.40
2019-02-17T09:11:17.287Z,42.58
2019-02-17T09:13:44.315Z,45.43
2019-02-17T09:16:12.514Z,46.45
2019-02-17T09:18:39.618Z,43.63
2019-02-17T09:21:06.739Z,40.12
2019-02-17T09:23:34.283Z,42.33
2019-02-17T09:26:01.413Z,36.55
2019-02-17T09:28:28.400Z,34.85
2019-02-17T09:30:55.529Z,41.37
2019-02-17T09:33:22.573Z,47.55
2019-02-17T09:35:49.999Z,39.15
2019-02-17T09:38:17.259Z,42.85
2019-02-17T09:40:44.461Z,37.03
2019-02-17T09:43:11.475Z,39.33
2019-02-17T09:45:38.568Z,42.05
2019-02-17T09:48:06.081Z,39.08
2019-02-17T09:50:33.153Z,37.40
2019-02-17T09:53:00.245Z,41.02
2019-02-17T09:55:27.400Z,59.53
2019-02-17T09:57:54.373Z,33.53
2019-02-17T10:00:21.592Z,40.60
2019-02-17T10:02:48.578Z,38.25
2019-02-17T10:05:16.226Z,42.45
2019-02-17T10:07:43.430Z,42.20
2019-02-17T10:10:11.952Z,33.83
2019-02-17T10:12:39.005Z,37.50
2019-02-17T10:15:07.998Z,40.00
2019-02-17T10:17:35.132Z,38.85
2019-02-17T10:20:02.599Z,40.25
2019-02-17T10:22:29.719Z,41.65
2019-02-17T10:24:56.996Z,43.20
2019-02-17T10:27:24.153Z,42.10
2019-02-17T10:29:51.676Z,42.43
2019-02-17T10:32:18.893Z,39.23
2019-02-17T10:34:45.979Z,39.63
2019-02-17T10:37:13.245Z,28.32
2019-02-17T10:39:41.350Z,38.15
2019-02-17T10:42:08.612Z,35.43
2019-02-17T10:44:35.703Z,38.58
2019-02-17T10:47:02.846Z,40.88
2019-02-17T10:49:30.070Z,35.58
2019-02-17T10:51:57.484Z,40.98
2019-02-17T10:54:24.708Z,34.45
2019-02-17T10:56:52.130Z,41.00
2019-02-17T10:59:19.641Z,35.35
2019-02-17T11:01:47.028Z,43.40
2019-02-17T11:04:14.344Z,39.65
2019-02-17T11:06:41.501Z,39.75
2019-02-17T11:09:19.046Z,41.23
2019-02-17T11:11:46.270Z,33.85
2019-02-17T11:14:13.292Z,32.88
2019-02-17T11:16:40.454Z,35.75
2019-02-17T11:19:07.700Z,38.85
2019-02-17T11:21:34.835Z,40.20
2019-02-17T11:24:01.850Z,33.28
2019-02-17T11:26:29.243Z,33.58
2019-02-17T11:28:56.454Z,32.78
2019-02-17T11:31:24.157Z,32.53
2019-02-17T11:33:51.416Z,36.70
2019-02-17T11:36:18.584Z,32.53
2019-02-17T11:38:46.120Z,30.25
2019-02-17T11:41:13.592Z,37.13
2019-02-17T11:43:41.241Z,33.70
2019-02-17T11:46:08.874Z,31.07
2019-02-17T11:48:36.058Z,32.50
2019-02-17T11:51:03.415Z,31.17
2019-02-17T11:53:31.960Z,29.35
2019-02-17T11:55:59.217Z,29.82
2019-02-17T11:58:26.265Z,32.75
2019-02-17T12:00:53.300Z,34.05
2019-02-17T12:03:20.526Z,32.78
2019-02-17T12:05:47.880Z,34.27
2019-02-17T12:08:14.915Z,40.58
2019-02-17T12:10:42.079Z,36.13
2019-02-17T12:13:09.189Z,31.90
2019-02-17T12:15:36.354Z,38.60
2019-02-17T12:18:04.926Z,38.05
2019-02-17T12:20:48.484Z,35.58
2019-02-17T12:23:19.580Z,46.30
2019-02-17T12:25:54.028Z,40.48
2019-02-17T12:28:46.645Z,39.95
2019-02-17T12:31:19.558Z,31.40
2019-02-17T12:33:47.224Z,31.23
2019-02-17T12:36:14.211Z,30.20
2019-02-17T12:38:41.247Z,32.28
2019-02-17T12:41:08.760Z,37.55
2019-02-17T12:43:36.371Z,29.25
2019-02-17T12:46:03.842Z,31.70
2019-02-17T12:48:30.965Z,30.57
2019-02-17T12:51:00.133Z,29.18
2019-02-17T12:53:27.340Z,35.17
2019-02-17T12:55:54.620Z,29.80
2019-02-17T12:58:29.578Z,36.95
2019-02-17T13:01:10.478Z,30.10
2019-02-17T13:03:37.768Z,27.48
2019-02-17T13:06:04.860Z,29.67
2019-02-17T13:08:32.215Z,25.88
2019-02-17T13:10:59.364Z,32.93
2019-02-17T13:13:26.439Z,29.87
2019-02-17T13:15:53.572Z,27.20
2019-02-17T13:18:20.839Z,26.90
2019-02-17T13:20:48.283Z,31.12
2019-02-17T13:23:15.533Z,38.48
2019-02-17T13:25:42.807Z,35.43
2019-02-17T13:28:10.008Z,35.03
2019-02-17T13:30:37.347Z,35.52
2019-02-17T13:33:04.552Z,32.45
2019-02-17T13:35:32.007Z,35.15
2019-02-17T13:37:59.273Z,36.15
2019-02-17T13:40:26.786Z,37.00
2019-02-17T13:42:54.380Z,34.00
2019-02-17T13:45:22.011Z,36.58
2019-02-17T13:47:49.353Z,35.20
2019-02-17T13:50:16.615Z,36.42
2019-02-17T13:52:44.823Z,35.63
2019-02-17T13:55:12.372Z,35.78
2019-02-17T13:57:39.626Z,39.10
2019-02-17T14:00:10.290Z,36.13
2019-02-17T14:02:37.471Z,32.80
2019-02-17T14:05:04.889Z,32.25
2019-02-17T14:07:32.241Z,36.28
2019-02-17T14:09:59.491Z,32.67
2019-02-17T14:12:26.645Z,35.10
2019-02-17T14:14:53.783Z,30.30
2019-02-17T14:17:20.915Z,34.33
2019-02-17T14:19:49.045Z,32.30
2019-02-17T14:22:16.211Z,35.15
2019-02-17T14:24:43.394Z,32.98
2019-02-17T14:27:11.051Z,32.98
2019-02-17T14:29:38.151Z,31.70
2019-02-17T14:32:05.567Z,35.45
2019-02-17T14:34:32.915Z,32.05
2019-02-17T14:37:00.102Z,33.02
2019-02-17T14:39:27.167Z,34.10
2019-02-17T14:41:54.201Z,37.50
2019-02-17T14:44:21.638Z,49.58
2019-02-17T14:46:48.870Z,47.05
2019-02-17T14:49:16.205Z,38.92
2019-02-17T14:51:43.559Z,37.35
2019-02-17T14:54:11.247Z,33.42
2019-02-17T14:56:39.131Z,39.00
2019-02-17T14:59:06.487Z,42.43
2019-02-17T15:01:33.683Z,37.35
2019-02-17T15:04:08.333Z,42.78
2019-02-17T15:06:29.991Z,38.15
2019-02-17T15:08:57.350Z,34.67
2019-02-17T15:11:24.495Z,44.73
2019-02-17T15:13:51.808Z,41.00
2019-02-17T15:16:19.407Z,43.87
2019-02-17T15:18:47.461Z,29.70
2019-02-17T15:21:14.642Z,31.33
2019-02-17T15:23:42.264Z,37.03
2019-02-17T15:26:10.065Z,28.35
2019-02-17T15:28:37.282Z,36.85
2019-02-17T15:31:04.529Z,33.10
2019-02-17T15:33:31.770Z,31.82
2019-02-17T15:35:58.893Z,27.30
2019-02-17T15:38:25.979Z,30.97
2019-02-17T15:40:53.134Z,34.88
2019-02-17T15:43:20.239Z,28.87
2019-02-17T15:45:47.642Z,30.70
2019-02-17T15:48:14.820Z,27.07
2019-02-17T15:50:42.177Z,30.80
2019-02-17T15:53:09.178Z,35.35
2019-02-17T15:55:36.609Z,30.97
2019-02-17T15:58:03.864Z,29.87
2019-02-17T16:00:31.427Z,30.52
2019-02-17T16:02:59.078Z,29.57
2019-02-17T16:05:26.366Z,40.67
2019-02-17T16:07:53.528Z,31.35
2019-02-17T16:10:20.735Z,31.77
2019-02-17T16:12:48.079Z,31.87
2019-02-17T16:15:15.554Z,29.27
2019-02-17T16:17:42.982Z,29.10
2019-02-17T16:20:11.350Z,28.77
2019-02-17T16:22:38.541Z,25.92
2019-02-17T16:25:06.070Z,29.82
2019-02-17T16:27:33.238Z,30.12
2019-02-17T16:30:00.491Z,28.55
2019-02-17T16:32:27.742Z,30.57
2019-02-17T16:34:55.300Z,29.95
2019-02-17T16:37:24.526Z,29.05
2019-02-17T16:39:51.754Z,33.02
2019-02-17T16:42:18.817Z,29.12
2019-02-17T16:44:45.936Z,27.77
2019-02-17T16:47:13.243Z,29.50
2019-02-17T16:49:40.359Z,32.53
2019-02-17T16:52:07.637Z,31.37
2019-02-17T16:54:35.021Z,34.78
2019-02-17T16:57:02.489Z,36.90
2019-02-17T16:59:30.079Z,31.33
2019-02-17T17:01:57.286Z,33.80
2019-02-17T17:04:24.758Z,30.05
2019-02-17T17:06:51.919Z,33.23
2019-02-17T17:09:19.566Z,27.27
2019-02-17T17:11:46.673Z,34.67
2019-02-17T17:14:14.230Z,29.30
2019-02-17T17:16:41.441Z,31.35
2019-02-17T17:19:09.811Z,33.85
2019-02-17T17:21:37.416Z,34.30
2019-02-17T17:24:04.971Z,33.58
2019-02-17T17:26:32.440Z,33.28
2019-02-17T17:29:00.976Z,29.18
2019-02-17T17:31:28.164Z,32.90
2019-02-17T17:33:55.201Z,30.88
2019-02-17T17:36:22.370Z,35.35
2019-02-17T17:38:49.636Z,35.55
2019-02-17T17:41:16.855Z,38.88
2019-02-17T17:43:44.214Z,34.90
2019-02-17T17:46:11.366Z,36.00
2019-02-17T17:48:38.349Z,35.73
2019-02-17T17:51:05.835Z,35.95
2019-02-17T17:53:33.207Z,37.10
2019-02-17T17:56:00.288Z,37.90
2019-02-17T17:58:27.353Z,38.58
2019-02-17T18:00:54.660Z,42.08
2019-02-17T18:03:21.924Z,38.38
2019-02-17T18:05:49.294Z,34.98
2019-02-17T18:08:16.344Z,38.98
2019-02-17T18:10:43.704Z,40.50
2019-02-17T18:13:10.738Z,36.03
2019-02-17T18:15:37.787Z,34.38
2019-02-17T18:18:05.034Z,37.17
2019-02-17T18:20:32.160Z,36.25
2019-02-17T18:22:59.302Z,35.48
2019-02-17T18:25:26.391Z,35.75
2019-02-17T18:27:53.535Z,38.67
2019-02-17T18:30:20.797Z,40.30
2019-02-17T18:32:48.414Z,38.85
2019-02-17T18:35:20.135Z,39.85
2019-02-17T18:37:45.308Z,41.23
2019-02-17T18:40:12.624Z,40.48
2019-02-17T18:42:39.714Z,37.73
2019-02-17T18:45:08.612Z,35.13
2019-02-17T18:47:35.860Z,36.77
2019-02-17T18:50:04.117Z,37.67
2019-02-17T18:52:32.074Z,40.20
2019-02-17T18:54:59.542Z,37.00
2019-02-17T18:57:26.815Z,33.88
2019-02-17T18:59:54.074Z,37.28
2019-02-17T19:02:21.299Z,33.53
2019-02-17T19:04:48.968Z,32.65
2019-02-17T19:07:17.103Z,33.45
2019-02-17T19:09:44.365Z,36.50
2019-02-17T19:12:11.436Z,37.42
2019-02-17T19:14:38.689Z,37.83
2019-02-17T19:17:05.800Z,36.13
2019-02-17T19:19:33.126Z,35.92
2019-02-17T19:22:00.239Z,37.83
2019-02-17T19:24:27.476Z,36.13
2019-02-17T19:26:55.043Z,34.35
2019-02-17T19:29:22.437Z,39.53
2019-02-17T19:31:49.583Z,37.48
2019-02-17T19:34:16.763Z,36.08
2019-02-17T19:36:44.403Z,36.80
2019-02-17T19:39:11.911Z,40.03
2019-02-17T19:41:39.640Z,38.73
2019-02-17T19:44:06.809Z,36.75
2019-02-17T19:46:34.156Z,33.98
2019-02-17T19:49:01.380Z,35.33
2019-02-17T19:51:28.449Z,37.30
2019-02-17T19:53:55.986Z,32.33
2019-02-17T19:56:23.115Z,35.28
2019-02-17T19:58:50.492Z,38.23
2019-02-17T20:01:18.616Z,40.95
2019-02-17T20:03:53.226Z,39.35
2019-02-17T20:06:22.116Z,35.60
2019-02-17T20:08:49.470Z,37.42
2019-02-17T20:11:16.810Z,33.70
2019-02-17T20:13:44.071Z,39.88
2019-02-17T20:16:11.555Z,35.43
2019-02-17T20:18:38.803Z,39.25
2019-02-17T20:21:05.970Z,34.85
2019-02-17T20:23:34.019Z,35.05
2019-02-17T20:26:01.180Z,41.92
2019-02-17T20:28:40.689Z,36.93
2019-02-17T20:30:57.406Z,34.40
2019-02-17T20:33:24.748Z,35.75
2019-02-17T20:36:01.761Z,35.68
2019-02-17T20:38:21.916Z,41.08
2019-02-17T20:40:49.578Z,36.55
2019-02-17T20:43:17.044Z,44.90
2019-02-17T20:45:44.391Z,37.28
2019-02-17T20:48:11.880Z,39.15
2019-02-17T20:50:39.097Z,39.45
2019-02-17T20:53:07.386Z,38.90
2019-02-17T20:55:35.158Z,37.33
2019-02-17T20:58:02.506Z,35.78
2019-02-17T21:00:30.014Z,37.28
2019-02-17T21:02:57.277Z,33.92
2019-02-17T21:05:24.700Z,38.80
2019-02-17T21:07:51.993Z,35.33
2019-02-17T21:10:19.738Z,33.55
2019-02-17T21:12:47.443Z,37.58
2019-02-17T21:15:15.835Z,40.60
2019-02-17T21:17:43.175Z,36.10
2019-02-17T21:20:10.767Z,34.33
2019-02-17T21:22:37.828Z,32.58
2019-02-17T21:25:05.673Z,37.48
2019-02-17T21:27:32.808Z,34.73
2019-02-17T21:30:00.310Z,40.52
2019-02-17T21:32:27.537Z,36.55
2019-02-17T21:34:55.625Z,35.50
2019-02-17T21:37:22.773Z,34.43
2019-02-17T21:39:49.897Z,35.20
2019-02-17T21:42:17.674Z,36.15
2019-02-17T21:44:44.801Z,33.08
2019-02-17T21:47:12.454Z,31.07
2019-02-17T21:49:39.658Z,32.65
2019-02-17T21:52:06.933Z,37.30
2019-02-17T21:54:34.103Z,33.80
2019-02-17T21:57:02.431Z,35.10
2019-02-17T21:59:29.971Z,33.83
2019-02-17T22:01:57.323Z,36.00
2019-02-17T22:04:24.534Z,35.70
2019-02-17T22:06:51.861Z,31.80
2019-02-17T22:09:19.697Z,36.03
2019-02-17T22:11:47.091Z,34.30
2019-02-17T22:14:14.206Z,30.85
2019-02-17T22:16:41.497Z,33.80
2019-02-17T22:19:08.524Z,34.38
2019-02-17T22:21:35.753Z,36.08
2019-02-17T22:24:03.071Z,35.00
2019-02-17T22:26:30.224Z,33.30
2019-02-17T22:28:57.328Z,31.20
2019-02-17T22:31:24.835Z,32.65
2019-02-17T22:33:52.530Z,35.13
2019-02-17T22:36:19.892Z,33.50
2019-02-17T22:38:47.071Z,28.57
2019-02-17T22:41:14.099Z,32.50
2019-02-17T22:43:41.434Z,31.62
2019-02-17T22:46:08.750Z,30.80
2019-02-17T22:48:36.019Z,32.80
2019-02-17T22:51:03.475Z,33.80
2019-02-17T22:53:30.726Z,30.60
2019-02-17T22:55:58.387Z,32.75
2019-02-17T22:58:25.830Z,29.75
2019-02-17T23:01:00.486Z,32.17
2019-02-17T23:03:30.528Z,30.00
2019-02-17T23:05:58.103Z,30.02
2019-02-17T23:08:25.256Z,31.65
2019-02-17T23:10:52.638Z,26.45
2019-02-17T23:13:19.724Z,33.48
2019-02-17T23:15:47.147Z,34.35
2019-02-17T23:18:14.339Z,31.20
2019-02-17T23:20:41.622Z,31.70
2019-02-17T23:23:08.703Z,28.95
2019-02-17T23:25:35.981Z,27.05
2019-02-17T23:28:03.556Z,31.85
2019-02-17T23:30:30.994Z,32.65
2019-02-17T23:32:58.105Z,31.75
2019-02-17T23:35:25.832Z,31.60
2019-02-17T23:37:52.938Z,30.08
2019-02-17T23:40:20.543Z,28.38
2019-02-17T23:42:47.636Z,28.98
2019-02-17T23:45:14.957Z,26.90
2019-02-17T23:47:42.106Z,29.12
2019-02-17T23:50:09.430Z,35.23
2019-02-17T23:52:36.692Z,28.90
2019-02-17T23:55:05.062Z,30.52
2019-02-17T23:57:32.245Z,34.23
2019-02-17T23:59:59.452Z,28.95
